Tiempo atmosférico en la estación meteorológica de Pamplona Aeropuerto, Navarra (459 m.)



Fecha
DESCASC
Temp. máxima en grados centígrados (hora)
DESCASC
Temp. mínima en grados centígrados (hora)
DESCASC
Temp. media en grados centígrados
DESCASC
Racha de viento máxima en m/sg (hora)
DESCASC
Velocidad máxima media en intervalos de 10 minutos(hora)
DESCASC
Precipitaciones diarias en mm
DESCASC
Precipitaciones de 00:00 a 06:00 en mm
DESCASC
Precipitaciones de 06:00 a 12:00 en mm
DESCASC
Precipitaciones de 12:00 a 18:00 en mm
DESCASC
Precipitaciones de 18:00 a 24:00 en mm
DESCASC
17-03-2019 12.8 (12:50) 2.6 (05:00) 7.7 15.28 (16:20) 11.67 (16:20) 0.6 0 0 0.1 0.5
16-03-2019 22.6 (17:30) -1.5 (07:30) 10.6 4.17 (21:20) 3.06 (21:20) 0 0 0 0 0
15-03-2019 13.9 (15:20) 4.3 (23:20) 9.1 10.83 (12:40) 6.67 (11:00) 0 0 0 0 0
14-03-2019 9.9 (16:10) 3.9 (00:00) 6.9 -- (--) -- (--) -- 0.6 0 0 --
13-03-2019 10.3 (13:20) 4.5 (00:00) 7.4 16.11 (15:00) 10.28 (15:00) 1.3 0 0 0.6 0.7
12-03-2019 17 (15:20) -1.8 (-00:0) 7.6 12.78 (22:30) 8.33 (18:20) 0 0 0 0 0
11-03-2019 13.5 (14:40) 1.6 (00:00) 7.6 12.5 (15:10) 8.61 (12:00) 0 0 0 0 0
10-03-2019 17.3 (14:20) 2.6 (00:00) 9.9 10.28 (13:50) 6.67 (13:50) 0 0 0 0 0
09-03-2019 18 (16:00) 3.4 (00:00) 10.7 6.67 (13:20) 4.44 (13:20) 0 0 0 0 0
08-03-2019 13.5 (14:50) 4 (00:00) 8.8 9.17 (12:50) 7.22 (12:50) 0.9 0 0.9 0 0
07-03-2019 14.5 (16:10) 1.2 (00:00) 7.9 10.28 (14:00) 6.39 (15:20) 0.8 0.8 0 0 0
06-03-2019 17.4 (10:40) 6.7 (00:00) 12 23.61 (09:10) 15 (09:00) 11.2 0 0 10.4 0.8
05-03-2019 17.6 (14:50) 1 (00:00) 9.3 14.44 (23:30) 9.72 (23:40) 0 0 0 0 0
04-03-2019 15.2 (14:30) 4.7 (00:00) 9.9 9.17 (15:00) 6.39 (15:20) 0 0 0 0 0
03-03-2019 17.3 (13:30) 0.8 (00:00) 9 9.17 (20:00) 6.94 (20:40) 0 0 0 0 0
02-03-2019 17.1 (13:50) 3.3 (00:00) 10.2 10.28 (15:20) 7.22 (15:50) 0 0 0 0 0
01-03-2019 15.2 (15:20) 0.7 (00:00) 7.9 9.72 (14:10) 6.67 (16:00) 0 0 0 0 0
28-02-2019 15.6 (14:40) 3.9 (00:00) 9.8 13.33 (14:00) 9.17 (14:50) 0 0 0 0 0
27-02-2019 22.6 (16:20) 0.2 (00:00) 11.4 10.28 (23:00) 7.5 (22:50) 0 0 0 0 0
26-02-2019 21.4 (16:00) -0.1 (00:00) 10.6 5.83 (16:00) 3.61 (16:00) 0 0 0 0 0
25-02-2019 18.3 (16:30) -0.2 (00:00) 9 3.61 (14:00) 2.78 (21:00) 0 0 0 0 0
24-02-2019 18.1 (16:20) 0.8 (00:00) 9.5 6.11 (16:30) 3.89 (16:40) 0 0 0 0 0
23-02-2019 20.6 (13:10) -0.9 (-00:0) 9.9 12.78 (16:00) 9.17 (16:40) 0 0 0 0 0
22-02-2019 21.3 (16:50) -1.7 (-00:0) 9.8 7.22 (17:30) 3.89 (18:20) 0 0 0 0 0
21-02-2019 17.1 (16:20) -0.7 (-00:0) 8.2 4.72 (13:30) 3.06 (21:50) 0 0 0 0 0
20-02-2019 14.6 (15:40) -0.9 (-00:0) 6.9 5 (14:10) 3.33 (17:00) 0 0 0 0 0

Gráficas

Temp. máximas Temp. mínimas Temp. medias Precipitaciones Rachas de viento máximas Velocidades máximas media en intervalos de 10 minutos

Datos horarios

Fecha y hora oficial Temperatura (ºC) Velocidad del viento (km/h) Dirección del viento Racha (km/h) Dirección de racha Precipitación (mm) Presión (hPa) Tendencia (hPa) Humedad (%)
2019-03-21 23:00:00 4.9 6 Sur 8 Sur 0 974.4 1.1 77
2019-03-21 22:00:00 5.4 3 Sudoeste 13 Oeste 0 974.3 1.6 78
2019-03-21 21:00:00 6.9 10 Oeste 13 Oeste 0 973.9 1.7 73
2019-03-21 20:00:00 9.5 3 Oeste 22 Norte 0 973.3 1 63
2019-03-21 19:00:00 11.5 15 Norte 24 Norte 0 972.7 0.1 56
2019-03-21 18:00:00 14.5 12 Noroeste 21 Noroeste 0 972.2 -0.8 39
2019-03-21 17:00:00 15.8 8 Oeste 17 Oeste 0 972.3 -1.5 32
2019-03-21 16:00:00 15 7 Norte 21 Oeste 0 972.6 -1.8 32
2019-03-21 15:00:00 15.3 5 Oeste 22 Norte 0 973 -1.5 32
2019-03-21 14:00:00 14.8 8 Noroeste 24 Noroeste 0 973.8 -1.4 34
2019-03-21 13:00:00 14.7 12 Noroeste 21 Noroeste 0 974.4 -1.3 39
2019-03-21 12:00:00 13.3 13 Norte 22 Norte 0 974.5 -1.4 41
2019-03-21 11:00:00 10.7 9 Noroeste 17 Noroeste 0 975.2 -0.6 57
2019-03-21 10:00:00 7.2 4 Oeste 9 Oeste 0 975.7 0.4 63
2019-03-21 09:00:00 3.9 3 Este 5 Este 0 975.9 0.8 75
2019-03-21 08:00:00 -0.3 3 Sudeste 9 Sudeste 0 975.8 0.9 90
2019-03-21 07:00:00 -1.7 0 Calma 8 Este 0 975.3 0.6 91
2019-03-21 06:00:00 -1.4 6 Sudeste 9 Sudeste 0 975.1 0 91
2019-03-21 05:00:00 -0.5 7 Sudeste 9 Sudeste 0 974.9 -0.6 91
2019-03-21 04:00:00 0.2 5 Sur 9 Sudeste 0 974.7 -1.1 90
2019-03-21 03:00:00 1.4 0 Calma 11 Oeste 0 975.1 -1 87
2019-03-21 02:00:00 2.2 5 Oeste 13 Noroeste 0 975.5 -0.8 86
2019-03-21 01:00:00 4.1 8 Noroeste 17 Norte 0 975.8 -0.6 80
2019-03-21 00:00:00 4.9 13 Noroeste 18 Norte 0 976.1 -0.3 81
2019-03-20 23:00:00 5.6 13 Norte 30 Norte 0 976.3 0.4 78
2019-03-20 22:00:00 5.9 18 Norte 33 Norte 0 976.4 0.8 75
2019-03-20 21:00:00 6.5 21 Norte 46 Norte 0 976.4 1.8 70
2019-03-20 20:00:00 6.9 30 Norte 46 Norte 0 975.9 2 65
2019-03-20 19:00:00 8.1 24 Norte 48 Norte 0 975.6 1.5 60
2019-03-20 18:00:00 9.4 26 Norte 50 Nordeste 0 974.6 -0.1 52
2019-03-20 17:00:00 10.9 30 Norte 48 Nordeste 0 973.9 -1.5 41
2019-03-20 16:00:00 11.9 31 Norte 46 Norte 0 974.1 -1.9 39
2019-03-20 15:00:00 12.2 27 Norte 42 Norte 0 974.7 -1.8 39
2019-03-20 14:00:00 11.2 30 Nordeste 52 Nordeste 0 975.4 -1.1 38
2019-03-20 13:00:00 10.3 33 Nordeste 55 Nordeste 0 976 -0.4 43
2019-03-20 12:00:00 9.6 35 Nordeste 50 Nordeste 0 976.5 0.1 41
2019-03-20 11:00:00 9.3 28 Nordeste 48 Nordeste 0 976.5 0.6 46
2019-03-20 10:00:00 8.7 13 Nordeste 32 Nordeste 0 976.4 0.7 56
2019-03-20 09:00:00 6.7 10 Oeste 13 Oeste 0 976.4 1 68
2019-03-20 08:00:00 2.6 9 Oeste 13 Oeste 0 975.9 0.5 85
2019-03-20 07:00:00 1.9 4 Oeste 11 Noroeste 0 975.7 0.6 88
2019-03-20 06:00:00 2.9 10 Noroeste 17 Norte 0 975.4 -0.4 87
2019-03-20 05:00:00 4 11 Noroeste 28 Norte 0 975.4 -0.7 81
2019-03-20 04:00:00 4.9 17 Norte 26 Norte 0 975.1 -1.2 77
2019-03-20 03:00:00 5.9 18 Norte 30 Norte 0 975.8 -0.4 75
2019-03-20 02:00:00 5.1 14 Norte 26 Norte 0 976.1 0 85
2019-03-20 01:00:00 4.9 12 Noroeste 21 Norte 0 976.3 0.6 86
2019-03-20 00:00:00 4.7 13 Noroeste 22 Norte 0 976.2 1.1 88
2019-03-19 23:00:00 5 17 Noroeste 24 Norte 0.7 976.1 1.3 87
2019-03-19 22:00:00 4.6 17 Nordeste 26 Nordeste 0.5 975.7 1.1 89
2019-03-19 21:00:00 5 21 Norte 32 Norte 0.3 975.1 1.3 87
2019-03-19 20:00:00 5.3 18 Norte 39 Norte 0 974.8 1.1 85
2019-03-19 19:00:00 5.8 26 Norte 37 Norte 0 974.6 1.1 75
2019-03-19 18:00:00 6.1 28 Norte 41 Norte 0 973.8 0.5 76
2019-03-19 17:00:00 5.7 30 Norte 45 Norte 0.1 973.7 0.4 84
2019-03-19 16:00:00 8 28 Nordeste 42 Norte 0 973.5 0.1 72
2019-03-19 15:00:00 6.6 25 Norte 41 Norte 0 973.3 0.4 81
2019-03-19 14:00:00 8.4 27 Norte 42 Norte 0 973.3 0.7 64
2019-03-19 13:00:00 8.6 27 Norte 54 Norte 0 973.4 1.2 64
2019-03-19 12:00:00 9 33 Norte 58 Norte 0 972.9 0.9 63
2019-03-19 11:00:00 8.4 30 Norte 48 Norte 0 972.6 0.8 67
2019-03-19 10:00:00 7.5 33 Norte 48 Norte 0 972.2 0.6 74
2019-03-19 09:00:00 6.2 26 Norte 39 Norte 0 972 0.5 84
2019-03-19 08:00:00 5 15 Noroeste 22 Noroeste 0 971.8 -0.1 91
2019-03-19 07:00:00 4.3 8 Noroeste 17 Oeste 0.2 971.6 -0.4 91
2019-03-19 06:00:00 4.1 6 Noroeste 15 Norte 0 971.5 -1 90
2019-03-19 05:00:00 3.9 8 Noroeste 15 Norte 0 971.9 -1 88
2019-03-19 04:00:00 3.7 10 Noroeste 22 Noroeste 0 972 -0.8 89
2019-03-19 03:00:00 4 11 Noroeste 22 Norte 0.2 972.5 -0.8 90
2019-03-19 02:00:00 4.2 12 Norte 24 Noroeste 0 972.9 -0.9 90
2019-03-19 01:00:00 4.2 9 Noroeste 13 Noroeste 0 972.8 -0.9 93
2019-03-19 00:00:00 4.6 6 Noroeste 13 Noroeste 0.2 973.3 -0.4 91
2019-03-18 23:00:00 4.8 8 Noroeste 17 Norte 0 973.8 0.4 88
2019-03-18 22:00:00 4.2 13 Norte 24 Norte 0 973.7 0.6 85
2019-03-18 21:00:00 4.9 17 Norte 26 Noroeste 0 973.7 1.3 81
2019-03-18 20:00:00 5.7 15 Norte 30 Norte 0 973.4 1.1 74
2019-03-18 19:00:00 6.9 26 Norte 46 Norte 0 973.1 0.3 67
2019-03-18 18:00:00 8.8 30 Norte 42 Norte 0 972.4 -0.2 54
2019-03-18 17:00:00 9.3 28 Norte 39 Norte 0 972.3 -0.9 55
2019-03-18 16:00:00 8.2 24 Norte 42 Norte 0 972.8 -0.9 69
2019-03-18 15:00:00 10.9 29 Norte 41 Norte 0 972.6 -1.4 57
2019-03-18 14:00:00 8.5 24 Noroeste 39 Norte 0 973.2 -0.9 71
2019-03-18 13:00:00 8.7 19 Noroeste 39 Nordeste 0 973.7 0 68
2019-03-18 12:00:00 8.6 18 Norte 39 Norte 0 974 1.1 66
2019-03-18 11:00:00 6.9 14 Noroeste 28 Norte 0 974.1 1.8 80
2019-03-18 10:00:00 5.5 15 Norte 24 Norte 0 973.7 1.8 85
2019-03-18 09:00:00 5.2 12 Noroeste 18 Noroeste 0 972.9 1.3 86
2019-03-18 08:00:00 3.8 10 Noroeste 15 Noroeste 0 972.3 1.2 91
2019-03-18 07:00:00 3.4 11 Noroeste 18 Noroeste 0 971.9 0.7 92
2019-03-18 06:00:00 3.5 11 Norte 17 Norte 0.1 971.6 0.5 91
2019-03-18 05:00:00 2.8 6 Sudoeste 11 Norte 0 971.1 -0.2 92
2019-03-18 04:00:00 3.2 12 Norte 21 Noroeste 0.3 971.2 -0.6 88
2019-03-18 03:00:00 2.9 3 Norte 15 Noroeste 0 971.1 -1 88
2019-03-18 02:00:00 3.8 12 Noroeste 22 Noroeste 0 971.3 -0.6 85
2019-03-18 01:00:00 3.2 12 Norte 18 Norte 0 971.8 0.2 88
2019-03-18 00:00:00 3.3 11 Noroeste 26 Norte 0.3 972.1 0.9 87
2019-03-17 23:00:00 3.9 14 Norte 26 Noroeste 0 971.9 1.3 82
2019-03-17 22:00:00 3.8 11 Norte 24 Noroeste 0 971.6 2 81
2019-03-17 21:00:00 4.1 14 Noroeste 41 Noroeste 0.2 971.2 2 85
2019-03-17 20:00:00 5.1 18 Norte 35 Norte 0 970.6 1.7 78
2019-03-17 19:00:00 7 15 Noroeste 37 Norte 0 969.6 1.2 65
2019-03-17 18:00:00 7.8 27 Noroeste 42 Noroeste 0 969.2 0.8 67
2019-03-17 17:00:00 8 27 Norte 55 Norte 0 968.9 0.9 69
2019-03-17 16:00:00 9.6 23 Norte 42 Norte 0 968.4 1.1 63
2019-03-17 15:00:00 8.7 29 Noroeste 45 Norte 0 968.4 1.6 74
2019-03-17 14:00:00 9 27 Noroeste 46 Noroeste 0.1 968 1.6 81
2019-03-17 13:00:00 11.5 20 Noroeste 41 Noroeste 0 967.3 1.5 66
2019-03-17 12:00:00 10.9 26 Noroeste 37 Noroeste 0 966.8 1.5 72
2019-03-17 11:00:00 10.5 29 Norte 41 Noroeste 0 966.4 1.5 70
2019-03-17 10:00:00 10.4 13 Norte 21 Norte 0 965.8 2.1 73
2019-03-17 09:00:00 9.8 4 Este 17 Norte 0 965.3 2.5 77
2019-03-17 08:00:00 6.9 11 Noroeste 17 Oeste 0 964.9 2.9 89
2019-03-17 07:00:00 6 7 Noroeste 21 Noroeste 0 963.7 1.9 89
2019-03-17 06:00:00 4 6 Noroeste 13 Oeste 0 962.8 1.1 93
2019-03-17 05:00:00 2.9 12 Noroeste 17 Noroeste 0 962 -0.3 92
2019-03-17 04:00:00 3.9 0 Calma 8 Oeste 0 961.8 -0.8 91
2019-03-17 03:00:00 4.5 0 Calma 13 Sur 0 961.7 -0.9 88
2019-03-17 02:00:00 5.6 2 Sudeste -- -- -- 962.3 -0.6 87
2019-03-17 01:00:00 6.2 3 Sudeste 9 Sudeste 0 962.6 -0.4 83
2019-03-17 00:00:00 7.6 4 Sur 8 Sur 0 962.6 -0.5 81
2019-03-16 23:00:00 9 0 Calma 11 Noroeste 0 962.9 -0.1 76
2019-03-16 22:00:00 10.8 6 Sudeste 15 Sur 0 963 0.2 72
2019-03-16 21:00:00 11.8 9 Sur 13 Sur 0 963.1 0.3 69
2019-03-16 20:00:00 14.5 6 Sudeste 11 Sudeste 0 963 -0.3 58
2019-03-16 19:00:00 18.8 5 Oeste 13 Noroeste 0 962.8 -1.3 47
2019-03-16 18:00:00 22.4 6 Oeste 11 Sur 0 962.8 -2.3 37
2019-03-16 17:00:00 22 4 Oeste 11 Oeste 0 963.3 -3.3 38
2019-03-16 16:00:00 21.4 5 Noroeste 11 Sudoeste 0 964.1 -4 39
2019-03-16 15:00:00 19.8 4 Oeste 11 Oeste 0 965.1 -3.8 40
2019-03-16 14:00:00 18 4 Norte 9 Nordeste 0 966.6 -3 44
2019-03-16 13:00:00 14.9 2 Noroeste 9 Noroeste 0 968.1 -1.9 50
2019-03-16 12:00:00 11.8 4 Oeste 9 Oeste 0 968.9 -1.3 57
2019-03-16 11:00:00 8.7 3 Sudeste 8 Sudeste 0 969.6 -0.7 63
2019-03-16 10:00:00 5.2 5 Norte 9 Noroeste 0 970 -0.5 76
2019-03-16 09:00:00 3 0 Calma 5 Nordeste 0 970.2 -0.5 84
2019-03-16 08:00:00 -0.2 0 Calma -- -- 0 970.3 -0.3 93
2019-03-16 07:00:00 -1 2 Este 8 Sur 0 970.5 -0.5 94
2019-03-16 06:00:00 -0.4 0 Calma 5 Noroeste 0 970.7 -1.1 95
2019-03-16 05:00:00 0.1 4 Sur 11 Este 0 970.6 -1.9 94
2019-03-16 04:00:00 0.7 3 Sudeste 11 Sur 0 971 -1.9 95
2019-03-16 03:00:00 1.4 0 Calma 9 Sur 0 971.8 -1.7 93
2019-03-16 02:00:00 2.4 6 Este 9 Nordeste 0 972.5 -1.2 92
2019-03-16 01:00:00 3.1 4 Este 8 Este 0 972.9 -1 90
2019-03-16 00:00:00 4.4 0 Calma 11 Sudeste 0 973.5 -0.2 88
2019-03-15 23:00:00 4.9 10 Sudeste 11 Sudeste 0 973.7 0.5 86
2019-03-15 22:00:00 6.5 7 Oeste 11 Oeste 0 973.9 1 83
2019-03-15 21:00:00 7.5 9 Noroeste 18 Nordeste 0 973.7 1.3 75
2019-03-15 20:00:00 8.4 15 Nordeste 21 Norte 0 973.2 0.6 73
2019-03-15 19:00:00 10.9 5 Nordeste 28 Norte 0 972.9 0 63
2019-03-15 18:00:00 12.3 20 Norte 32 Norte 0 972.4 -0.9 58
2019-03-15 17:00:00 13.1 19 Norte 33 Norte 0 972.6 -1.4 56
2019-03-15 16:00:00 13.4 16 Norte 33 Norte 0 972.9 -1.7 55
2019-03-15 15:00:00 13.2 19 Norte 37 Norte 0 973.3 -1.5 58
2019-03-15 14:00:00 12.4 23 Nordeste 39 Norte 0 974 -1.2 60
2019-03-15 13:00:00 12.5 21 Norte 39 Norte 0 974.6 -0.7 58
2019-03-15 12:00:00 12.1 24 Norte 35 Norte 0 974.8 -0.7 59
2019-03-15 11:00:00 11.2 24 Norte 33 Norte 0 975.2 -0.2 61
2019-03-15 10:00:00 10.2 20 Norte 30 Norte 0 975.3 -0.1 65
2019-03-15 09:00:00 8.2 20 Norte 30 Norte 0 975.5 -0.1 68
2019-03-15 08:00:00 7.5 12 Norte 24 Norte 0 975.4 -0.3 73
2019-03-15 07:00:00 7.4 15 Norte 24 Norte 0 975.4 -0.4 73
2019-03-15 06:00:00 7.5 14 Norte 30 Norte 0 975.6 -0.8 74
2019-03-15 05:00:00 7.4 15 Norte 24 Norte 0 975.7 -0.9 77
2019-03-15 04:00:00 7.2 6 Norte 24 Norte 0 975.8 -0.8 79
2019-03-15 03:00:00 7.5 17 Norte 26 Norte 0 976.4 -0.7 77
2019-03-15 02:00:00 7.6 16 Norte 30 Norte 0 976.6 -0.2 76
2019-03-15 01:00:00 7.4 15 Norte 24 Norte 0 976.6 -- 77
2019-03-15 00:00:00 7.6 18 Norte 32 Norte 0 977.1 0.6 76
2019-03-14 23:00:00 7.6 20 Norte -- -- -- 976.8 0.4 74
2019-03-14 22:00:00 -- -- -- -- -- -- -- -- --
2019-03-14 21:00:00 8 18 Norte 32 Norte 0 976.5 1.4 67
2019-03-14 20:00:00 8 18 Norte 35 Norte 0 976.4 1.4 66
2019-03-14 19:00:00 8.6 17 Norte 41 Norte 0 975.8 0.5 65
2019-03-14 18:00:00 9.2 29 Norte 46 Norte 0 975.1 -0.6 61
2019-03-14 17:00:00 9.4 24 Norte 42 Noroeste 0 975 -1.5 62
2019-03-14 16:00:00 9.6 22 Norte 41 Noroeste 0 975.3 -1.5 64
2019-03-14 15:00:00 9.7 15 Norte 37 Noroeste 0 975.7 -1.5 67
2019-03-14 14:00:00 9 23 Norte 37 Norte 0 976.5 -0.8 68
2019-03-14 13:00:00 9.3 19 Noroeste 28 Norte 0 976.8 -0.7 68
2019-03-14 12:00:00 8.3 14 Norte 28 Norte 0 977.2 -0.1 75
2019-03-14 11:00:00 8.2 16 Noroeste 28 Noroeste 0 977.3 0.5 77
2019-03-14 10:00:00 6.5 14 Norte 24 Noroeste 0 977.5 1 86
2019-03-14 09:00:00 5.8 13 Norte 21 Noroeste 0 977.3 0.5 84
2019-03-14 08:00:00 4.1 2 Este 21 Norte 0 976.8 0.3 86
2019-03-14 07:00:00 4.5 18 Norte 28 Norte 0 976.5 -0.2 87
2019-03-14 06:00:00 4.8 13 Noroeste 28 Noroeste 0 976.8 -0.2 89
2019-03-14 05:00:00 5 13 Noroeste 26 Norte 0 976.5 -0.6 89
2019-03-14 04:00:00 5.1 12 Noroeste 22 Noroeste 0.1 976.7 -0.6 90
2019-03-14 03:00:00 4.9 13 Norte 21 Noroeste 0.4 977 -0.4 93
2019-03-14 02:00:00 4.7 12 Noroeste 26 Noroeste 0 977.1 -0.1 89
2019-03-14 01:00:00 5.2 13 Noroeste 30 Norte 0.1 977.3 0.2 87
2019-03-14 00:00:00 5.5 20 Noroeste 32 Noroeste 0 977.4 0.8 83
2019-03-13 23:00:00 5.1 17 Noroeste 35 Noroeste 0.1 977.2 1.2 85
2019-03-13 22:00:00 5.3 20 Noroeste 30 Norte 0.2 977.1 1.1 86
2019-03-13 21:00:00 5.3 18 Noroeste 30 Noroeste 0.2 976.6 0.9 87
2019-03-13 20:00:00 5.2 15 Noroeste 35 Norte 0 976 1.1 84
2019-03-13 19:00:00 5.7 24 Noroeste 42 Noroeste 0.2 976 1.6 84
2019-03-13 18:00:00 6.3 28 Norte 48 Noroeste 0.2 975.7 1.3 82
2019-03-13 17:00:00 7.4 29 Noroeste 42 Noroeste 0.2 974.9 0.9 78
2019-03-13 16:00:00 8.3 27 Noroeste 48 Noroeste 0 974.4 0.1 70
2019-03-13 15:00:00 7 37 Noroeste 58 Noroeste 0.2 974.4 0.1 81
2019-03-13 14:00:00 8.4 25 Noroeste 45 Noroeste 0 974 -0.1 70
2019-03-13 13:00:00 9.4 25 Noroeste 48 Noroeste 0 974.3 0.3 65
2019-03-13 12:00:00 7.7 25 Norte 41 Norte 0 974.3 1.2 75
2019-03-13 11:00:00 7.6 21 Noroeste 41 Noroeste 0 974.1 1.2 68
2019-03-13 10:00:00 6.3 20 Noroeste 41 Norte 0 974 1.6 75
2019-03-13 09:00:00 5.9 19 Noroeste 30 Noroeste 0 973.1 0.6 78
2019-03-13 08:00:00 4.8 18 Norte 30 Norte 0 972.9 0.6 82
2019-03-13 07:00:00 4.9 13 Norte 21 Norte 0 972.4 -0.2 81
2019-03-13 06:00:00 4.6 10 Norte 17 Noroeste 0 972.5 -0.1 77
2019-03-13 05:00:00 5.3 8 Noroeste 18 Norte 0 972.3 -0.3 74
2019-03-13 04:00:00 5.5 12 Noroeste 22 Noroeste 0 972.6 0 80
2019-03-13 03:00:00 5.6 13 Norte 30 Norte 0 972.6 0.2 76
2019-03-13 02:00:00 6.5 20 Norte 35 Norte 0 972.6 0.7 75
2019-03-13 01:00:00 7.2 22 Norte 39 Nordeste 0 972.6 1.7 74
2019-03-13 00:00:00 8.2 21 Norte 41 Norte 0 972.4 2.3 78
2019-03-12 23:00:00 9.1 13 Norte 46 Norte 0 971.9 2.3 77
2019-03-12 22:00:00 10.8 23 Noroeste 37 Norte 0 970.9 1.7 75
2019-03-12 21:00:00 11.6 22 Norte 35 Norte 0 970.1 2 65
2019-03-12 20:00:00 10.4 10 Nordeste 32 Nordeste 0 969.6 1.7 68
2019-03-12 19:00:00 11.7 25 Norte 41 Norte 0 969.2 0.6 66
2019-03-12 18:00:00 15.2 12 Noroeste 18 Noroeste 0 968.1 -1.1 47
2019-03-12 17:00:00 16.1 9 Norte 13 Norte 0 967.9 -2.4 42
2019-03-12 16:00:00 16.4 14 Sudoeste 24 Sudoeste 0 968.6 -2.9 40
2019-03-12 15:00:00 16.5 17 Sudoeste 26 Sur 0 969.2 -3.1 43
2019-03-12 14:00:00 14.6 5 Sudoeste 11 Sur 0 970.3 -2.9 47
2019-03-12 13:00:00 13.3 4 Sudoeste 11 Sudeste 0 971.5 -2 52
2019-03-12 12:00:00 11.5 3 Nordeste 9 Norte 0 972.3 -1.4 53
2019-03-12 11:00:00 8.7 2 Noroeste 9 Este 0 973.2 -0.6 62
2019-03-12 10:00:00 4.9 0 Calma 5 Nordeste 0 973.5 -0.4 77
2019-03-12 09:00:00 1.5 0 Calma 8 Sudeste 0 973.7 -0.6 91
2019-03-12 08:00:00 -1 0 Calma 4 Este 0 973.8 -0.6 93
2019-03-12 07:00:00 -1.3 0 Calma 5 Sudeste 0 973.9 -0.9 95
2019-03-12 06:00:00 -1.1 0 Calma 4 Sudoeste 0 974.3 -1.3 94
2019-03-12 05:00:00 -1.2 0 Calma 5 Sudeste 0 974.4 -1.4 94
2019-03-12 04:00:00 -0.8 0 Calma 9 Sudeste 0 974.8 -1.4 93
2019-03-12 03:00:00 0.2 4 Sur 5 Sur 0 975.6 -1 91
2019-03-12 02:00:00 0.5 3 Este 8 Nordeste 0 975.8 -1.3 91
2019-03-12 01:00:00 1.3 3 Sudoeste 9 Sur 0 976.2 -0.8 89
2019-03-12 00:00:00 1.9 3 Sur 11 Sudeste 0 976.6 -0.8 89
2019-03-11 23:00:00 3.6 5 Sudeste 9 Sur 0 977.1 -0.3 85
2019-03-11 22:00:00 5 0 Calma 11 Noroeste 0 977 -0.1 79
2019-03-11 21:00:00 6.2 11 Noroeste 21 Norte 0 977.4 0.5 74
2019-03-11 20:00:00 7.5 16 Norte 26 Noroeste 0 977.4 0.4 68
2019-03-11 19:00:00 9.3 20 Norte 33 Norte 0 977.1 -0.2 59
2019-03-11 18:00:00 10.8 23 Norte 39 Norte 0 976.9 -0.9 55
2019-03-11 17:00:00 12.1 24 Norte 33 Norte 0 977 -1.9 51
2019-03-11 16:00:00 12.3 23 Norte 45 Norte 0 977.3 -2.3 50
2019-03-11 15:00:00 12.6 29 Norte 39 Norte 0 977.8 -2 50
2019-03-11 14:00:00 12 23 Noroeste 37 Norte 0 978.9 -1.2 53
2019-03-11 13:00:00 11.3 22 Norte 39 Norte 0 979.6 -0.2 58
2019-03-11 12:00:00 10.6 31 Noroeste 42 Noroeste 0 979.8 0.1 61
2019-03-11 11:00:00 9 25 Norte 42 Norte 0 980.1 0.7 66
2019-03-11 10:00:00 9.3 19 Norte 30 Norte 0 979.8 0.9 65
2019-03-11 09:00:00 6.9 21 Noroeste 28 Noroeste 0 979.7 1 72
2019-03-11 08:00:00 4.9 9 Oeste 21 Norte 0 979.4 1.4 82
2019-03-11 07:00:00 6 12 Noroeste 22 Oeste 0 978.9 0.8 80
2019-03-11 06:00:00 7 15 Noroeste 37 Norte 0 978.7 0.7 75
2019-03-11 05:00:00 7.7 18 Norte 30 Norte 0 978 0 70
2019-03-11 04:00:00 8.4 22 Norte 39 Nordeste 0 978.1 0.4 66
2019-03-11 03:00:00 8.6 21 Norte 35 Norte 0 978 0.5 74
2019-03-11 02:00:00 8.5 10 Norte 22 Norte 0 978 0.6 82
2019-03-11 01:00:00 8.6 14 Noroeste 21 Norte 0 977.7 0.1 82
2019-03-11 00:00:00 8.8 14 Noroeste 22 Norte 0 977.5 0.1 82
2019-03-10 23:00:00 8.7 10 Noroeste 18 Norte 0 977.4 0.2 85
2019-03-10 22:00:00 8.7 16 Noroeste 26 Norte 0 977.6 0.7 85
2019-03-10 21:00:00 9.1 14 Norte 28 Norte 0 977.4 1 82
2019-03-10 20:00:00 10.8 13 Noroeste 24 Noroeste 0 977.2 0.9 80
2019-03-10 19:00:00 11.5 10 Norte 21 Norte 0 976.9 0.4 82
2019-03-10 18:00:00 12.3 13 Norte 28 Norte 0 976.4 0.1 77
2019-03-10 17:00:00 12.8 17 Norte 28 Norte 0 976.3 -0.5 75
2019-03-10 16:00:00 13.4 20 Norte 35 Norte 0 976.5 -1.1 71
2019-03-10 15:00:00 15.1 23 Norte 33 Norte 0 976.3 -1.4 63
2019-03-10 14:00:00 16.7 22 Noroeste 37 Norte 0 976.8 -0.8 58
2019-03-10 13:00:00 13.6 9 Norte 32 Norte 0 977.6 0.2 70
2019-03-10 12:00:00 12.8 17 Norte 24 Norte 0 977.7 0.4 78
2019-03-10 11:00:00 12 4 Norte 8 Norte 0 977.6 1.3 81
2019-03-10 10:00:00 9.5 2 Sur 8 Este 0 977.4 2 95
2019-03-10 09:00:00 5.7 8 Sudeste 11 Oeste 0 977.3 2.4 98
2019-03-10 08:00:00 3.2 8 Oeste 11 Oeste 0 976.3 1.8 98
2019-03-10 07:00:00 3 2 Oeste 5 Noroeste 0 975.4 0.7 97
2019-03-10 06:00:00 3.7 0 Calma 4 Sur 0 974.9 -0.2 97
2019-03-10 05:00:00 4 0 Calma 4 Sur 0 974.5 -1.1 97
2019-03-10 04:00:00 4.8 0 Calma 5 Oeste 0 974.7 -1.3 97
2019-03-10 03:00:00 5.3 3 Sudoeste 8 Sudoeste 0 975.1 -1.3 96
2019-03-10 02:00:00 6.3 0 Calma 5 Sudeste 0 975.6 -0.9 95
2019-03-10 01:00:00 7.3 3 Sur 9 Sur 0 976 -0.3 94
2019-03-10 00:00:00 7.7 8 Sur 9 Sur 0 976.4 0.1 92
2019-03-09 23:00:00 8.7 6 Sur 9 Sur 0 976.5 0.2 91
2019-03-09 22:00:00 9.8 4 Este 5 Este 0 976.3 0.6 87
2019-03-09 21:00:00 11.2 5 Sudoeste 8 Este 0 976.3 0.8 83
2019-03-09 20:00:00 13.2 0 Calma 11 Este 0 976.3 0.4 75
2019-03-09 19:00:00 14.1 8 Nordeste 13 Nordeste 0 975.7 -0.1 74
2019-03-09 18:00:00 16.2 8 Nordeste 15 Nordeste 0 975.5 -0.8 66
2019-03-09 17:00:00 17.2 8 Nordeste 17 Norte 0 975.9 -1.2 61
2019-03-09 16:00:00 17.9 6 Noroeste 18 Norte 0 975.8 -1.8 58
2019-03-09 15:00:00 16.4 5 Norte 22 Nordeste 0 976.3 -1.5 63
2019-03-09 14:00:00 15.6 11 Norte 24 Norte 0 977.1 -0.9 67
2019-03-09 13:00:00 15 11 Norte 22 Norte 0 977.6 -0.2 66
2019-03-09 12:00:00 13 5 Norte 11 Norte 0 977.8 0.4 61
2019-03-09 11:00:00 11.2 0 Calma 8 Este 0 978 1.4 63
2019-03-09 10:00:00 8.6 4 Este 8 Este 0 977.8 1.6 74
2019-03-09 09:00:00 5.9 0 Calma 5 Norte 0 977.4 1.9 85
2019-03-09 08:00:00 4 4 Sur 8 Sur 0 976.6 1.7 91
2019-03-09 07:00:00 4 0 Calma 5 Norte 0 976.2 1.5 93
2019-03-09 06:00:00 3.5 0 Calma 8 Noroeste 0 975.5 0.7 93
2019-03-09 05:00:00 3.8 0 Calma 8 Sudoeste 0 974.9 -0.1 92
2019-03-09 04:00:00 4.5 0 Calma 5 Sudoeste 0 974.7 -0.2 91
2019-03-09 03:00:00 3.9 3 Este -- -- -- 974.8 0.3 90
2019-03-09 02:00:00 4.2 2 Sudeste 8 Sudeste 0 975 1.2 90
2019-03-09 01:00:00 3.6 6 Sur 8 Sur 0 974.9 1.3 90
2019-03-09 00:00:00 4.1 0 Calma 8 Sur 0 974.5 1.7 88
2019-03-08 23:00:00 4.6 3 Sur 8 Sur 0 973.8 1.3 87
2019-03-08 22:00:00 4.8 4 Sudeste 9 Sur 0 973.6 2.3 86
2019-03-08 21:00:00 5.9 9 Sur 11 Sur 0 972.8 1.6 80
2019-03-08 20:00:00 7.5 0 Calma 9 Norte 0 972.5 1.9 75
2019-03-08 19:00:00 9.5 6 Noroeste 18 Norte 0 971.3 1 66
2019-03-08 18:00:00 9.7 16 Norte 30 Norte 0 971.2 1.1 65
2019-03-08 17:00:00 11.4 18 Norte 28 Norte 0 970.6 0.3 54
2019-03-08 16:00:00 12.3 19 Norte 33 Noroeste 0 970.3 -0.1 54
2019-03-08 15:00:00 11.3 18 Norte 32 Noroeste 0 970.1 0.1 59
2019-03-08 14:00:00 10.7 16 Noroeste 33 Noroeste 0 970.3 0.5 62
2019-03-08 13:00:00 10.4 23 Norte 33 Norte 0 970.4 1.4 67
2019-03-08 12:00:00 9.8 6 Noroeste 22 Norte 0 970 2.1 72
2019-03-08 11:00:00 8.5 9 Norte 18 Noroeste 0 969.8 3.4 81
2019-03-08 10:00:00 7 6 Norte 13 Norte 0.6 969 3.5 88
2019-03-08 09:00:00 6.3 9 Norte 21 Norte 0.3 967.9 3.4 88
2019-03-08 08:00:00 5.5 6 Norte 9 Oeste 0 966.4 2.5 84
2019-03-08 07:00:00 5.2 5 Sudoeste 8 Oeste 0 965.5 1.9 84
2019-03-08 06:00:00 6.3 5 Noroeste 8 Noroeste 0 964.5 0.7 79
2019-03-08 05:00:00 6.6 2 Sudoeste 15 Sur 0 963.9 0.1 74
2019-03-08 04:00:00 6.7 12 Sur -- -- -- 963.6 0.5 72
2019-03-08 03:00:00 6.6 11 Sur 15 Sur 0 963.8 1.2 74
2019-03-08 02:00:00 6.6 8 Este 11 Este 0 963.8 1.3 77
2019-03-08 01:00:00 6.3 6 Noroeste 13 Oeste 0 963.1 1.3 76
2019-03-08 00:00:00 6.3 3 Oeste 5 Oeste 0 962.6 1 75
2019-03-07 23:00:00 6.4 0 Calma 17 Sur 0 962.5 1.3 71
2019-03-07 22:00:00 7.4 14 Sur 21 Sur 0 961.8 1.3 66
2019-03-07 21:00:00 7.2 16 Sur 18 Sur 0 961.6 1.6 67
2019-03-07 20:00:00 7 9 Sur 13 Sur 0 961.2 1.1 67
2019-03-07 19:00:00 9.7 6 Sur 18 Oeste 0 960.5 0.5 55
2019-03-07 18:00:00 11.8 10 Sudoeste 28 Oeste 0 960 -0.2 44
2019-03-07 17:00:00 12.2 18 Sudoeste 28 Sudoeste 0 960.1 -0.6 41
2019-03-07 16:00:00 14.1 13 Sudoeste 33 Sudoeste 0 960 -1.5 35
2019-03-07 15:00:00 12.7 22 Sudoeste 35 Sudoeste 0 960.2 -1.7 38
2019-03-07 14:00:00 12.6 21 Sudoeste 37 Sudoeste 0 960.7 -1.7 41
2019-03-07 13:00:00 12.1 13 Sudoeste 32 Sudoeste 0 961.5 -0.9 47
2019-03-07 12:00:00 10.9 19 Oeste 32 Oeste 0 961.9 0 50
2019-03-07 11:00:00 9.3 14 Sudoeste 26 Sudoeste 0 962.4 1.3 60
2019-03-07 10:00:00 7.4 2 Nordeste 8 Nordeste 0 962.4 2 77
2019-03-07 09:00:00 4.6 2 Este 8 Sudoeste 0 961.9 2 86
2019-03-07 08:00:00 1.8 2 Sudeste 9 Nordeste 0 961.1 1.9 93
2019-03-07 07:00:00 3 6 Sur 13 Oeste 0 960.4 1.7 92
2019-03-07 06:00:00 3.5 4 Sur 11 Sudeste 0 959.9 1.7 91
2019-03-07 05:00:00 4.9 4 Sur 15 Sur 0 959.2 1.7 86
2019-03-07 04:00:00 5.1 6 Sudoeste 21 Noroeste 0 958.7 2.3 83
2019-03-07 03:00:00 6.1 6 Sur 13 Sudoeste 0 958.2 3.1 89
2019-03-07 02:00:00 6.5 0 Calma 24 Noroeste 0.2 957.5 3.9 88
2019-03-07 01:00:00 7.2 16 Oeste 30 Sudoeste 0.6 956.4 4.2 84
2019-03-07 00:00:00 6.9 9 Oeste 41 Oeste 0.7 955.1 4.5 86
2019-03-06 23:00:00 9.7 14 Oeste 42 Sudoeste 0 953.6 4.2 59
2019-03-06 22:00:00 8.4 12 Sur 26 Sur 0 952.2 4.1 66
2019-03-06 21:00:00 7.8 16 Sur 32 Sur 0 950.6 3.1 74
2019-03-06 20:00:00 7.5 18 Sur 46 Sudoeste 0.1 949.4 1.7 86
2019-03-06 19:00:00 9.1 24 Sur 33 Sur 0 948.1 1.8 81
2019-03-06 18:00:00 8.9 19 Sudoeste 35 Sudoeste 0.4 947.5 0.2 82
2019-03-06 17:00:00 7.7 27 Oeste 61 Oeste 8 947.7 -0.9 86
2019-03-06 16:00:00 13.2 32 Sur 58 Sur 0 946.3 -2.6 66
2019-03-06 15:00:00 12.9 37 Sur 71 Sur 0.5 947.3 -2 71
2019-03-06 14:00:00 11.7 45 Sur 82 Sur 1.2 948.6 -1.1 76
2019-03-06 13:00:00 12.7 37 Sur 58 Sudeste 0.3 948.9 -0.9 69
2019-03-06 12:00:00 14.8 39 Sur 65 Sur 0 949.3 -0.4 51
2019-03-06 11:00:00 16.7 47 Sur 74 Sur 0 949.7 -0.3 44
2019-03-06 10:00:00 15.6 44 Sur 85 Sur 0 949.8 -0.4 51
2019-03-06 09:00:00 15.6 54 Sur 74 Sur 0 949.7 -1.6 51
2019-03-06 08:00:00 14.4 37 Sur 76 Sur 0 950 -2.2 54
2019-03-06 07:00:00 14 46 Sur 76 Sur 0 950.2 -3.2 55
2019-03-06 06:00:00 14.3 41 Sur 71 Sur 0 951.3 -3.2 55
2019-03-06 05:00:00 13.3 30 Sudeste 46 Sur 0 952.2 -3.5 55
2019-03-06 04:00:00 12.8 25 Sudeste 52 Sudeste 0 953.4 -3 55
2019-03-06 03:00:00 13.1 37 Sudeste 61 Sudeste 0 954.5 -3 53
2019-03-06 02:00:00 12.8 34 Sudeste 54 Sudeste 0 955.7 -2.6 54
2019-03-06 01:00:00 12.8 34 Sudeste 55 Sudeste 0 956.4 -2.1 54
2019-03-06 00:00:00 12.7 31 Este 52 Sudeste 0 957.5 -1.2 53
2019-03-05 23:00:00 12.2 26 Sudeste 50 Sudeste 0 958.3 -0.4 54
2019-03-05 22:00:00 13.1 24 Sudeste 45 Sudeste 0 958.5 0 50
2019-03-05 21:00:00 12.9 28 Sudeste 45 Sudeste 0 958.7 0.1 51
2019-03-05 20:00:00 13.1 26 Sudeste 41 Sudeste 0 958.7 -0.2 50
2019-03-05 19:00:00 14.3 26 Sudeste 45 Sudeste 0 958.5 -1.2 46
2019-03-05 18:00:00 16.3 27 Sur 45 Sur 0 958.6 -1.4 40
2019-03-05 17:00:00 16.8 28 Sur 45 Sudoeste 0 958.9 -2.4 38
2019-03-05 16:00:00 17.1 29 Sur 45 Sur 0 959.7 -2.6 38
2019-03-05 15:00:00 17 30 Sur 48 Sur 0 960 -2.8 38
2019-03-05 14:00:00 16.6 24 Sur 35 Sur 0 961.3 -2 41
2019-03-05 13:00:00 15.8 17 Sur 30 Sur 0 962.3 -1.5 40
2019-03-05 12:00:00 14.8 16 Sur 30 Sur 0 962.8 -1.4 44
2019-03-05 11:00:00 10.8 3 Este 11 Norte 0 963.3 -0.6 61
2019-03-05 10:00:00 8.1 4 Sudoeste 8 Oeste 0 963.8 0.1 68
2019-03-05 09:00:00 4.9 4 Este 9 Oeste 0 964.2 0.2 82
2019-03-05 08:00:00 1.7 0 Calma 9 Oeste 0 963.9 -0.1 90
2019-03-05 07:00:00 2.5 2 Sudoeste 11 Sudeste 0 963.7 -0.5 88
2019-03-05 06:00:00 3.4 4 Sudeste 8 Nordeste 0 964 -0.4 88
2019-03-05 05:00:00 4.2 3 Noroeste 11 Sudeste 0 964 -0.7 84
2019-03-05 04:00:00 4.2 0 Calma 8 Oeste 0 964.2 -1.2 85
2019-03-05 03:00:00 4.4 6 Oeste 8 Oeste 0 964.4 -1.2 83
2019-03-05 02:00:00 4.7 4 Este 9 Sudeste 0 964.7 -1.2 81
2019-03-05 01:00:00 4.8 3 Sudeste 9 Sudeste 0 965.4 -0.2 79
2019-03-05 00:00:00 4.9 7 Sudeste 9 Sudeste 0 965.6 0.1 78
2019-03-04 23:00:00 5.7 4 Este 11 Sudeste 0 965.9 0.4 74
2019-03-04 22:00:00 7.1 7 Nordeste 13 Nordeste 0 965.6 0.7 68
2019-03-04 21:00:00 7.6 9 Nordeste 26 Nordeste 0 965.5 1.4 66
2019-03-04 20:00:00 8.3 19 Norte 28 Nordeste 0 965.5 1.4 62
2019-03-04 19:00:00 8.9 17 Norte 24 Norte 0 964.9 1.2 59
2019-03-04 18:00:00 10.1 17 Norte 26 Norte 0 964.1 0.5 59
2019-03-04 17:00:00 10.9 17 Norte 28 Norte 0 964.1 0.3 57
2019-03-04 16:00:00 12.1 18 Nordeste 33 Norte 0 963.7 -0.6 55
2019-03-04 15:00:00 13.8 18 Norte 33 Nordeste 0 963.6 -1 51
2019-03-04 14:00:00 14.1 19 Norte 28 Norte 0 963.8 -0.7 50
2019-03-04 13:00:00 14.2 9 Norte 24 Norte 0 964.3 0.3 53
2019-03-04 12:00:00 12.4 8 Norte 30 Norte 0 964.6 1.6 60
2019-03-04 11:00:00 12.5 14 Norte 30 Norte 0 964.5 2.2 62
2019-03-04 10:00:00 12.6 20 Norte 32 Oeste 0 964 2.5 64
2019-03-04 09:00:00 12.9 17 Oeste 28 Noroeste 0 963 1.4 58
2019-03-04 08:00:00 11.3 13 Oeste 24 Sudoeste 0 962.3 0.8 65
2019-03-04 07:00:00 12.2 13 Sudoeste 24 Sudoeste 0 961.5 -0.2 62
2019-03-04 06:00:00 13.4 13 Oeste 30 Oeste 0 961.6 0.1 59
2019-03-04 05:00:00 11.5 14 Sudoeste 32 Sudoeste 0 961.5 -0.8 53
2019-03-04 04:00:00 10.8 9 Noroeste 22 Norte 0 961.7 -0.6 53
2019-03-04 03:00:00 10.4 6 Sudeste 18 Sudeste 0 961.5 -0.6 52
2019-03-04 02:00:00 10.1 8 Sudoeste 18 Sudoeste 0 962.3 -0.2 54
2019-03-04 01:00:00 9.3 7 Norte 18 Sudoeste 0 962.3 -0.1 60
2019-03-04 00:00:00 10.3 9 Sudeste 18 Sudoeste 0 962.1 0.2 51
2019-03-03 23:00:00 12 3 Sudeste 11 Norte 0 962.5 0.7 47
2019-03-03 22:00:00 12.4 5 Norte 21 Sur 0 962.4 0.5 50
2019-03-03 21:00:00 16.1 20 Sur 32 Sur 0 961.9 -0.4 33
2019-03-03 20:00:00 15.7 20 Sur 33 Sur 0 961.8 -0.9 35
2019-03-03 19:00:00 12.6 3 Este 11 Sudeste 0 961.9 -2.2 62
2019-03-03 18:00:00 14.1 5 Oeste 15 Norte 0 962.3 -3 58
2019-03-03 17:00:00 14.9 9 Noroeste 11 Noroeste 0 962.7 -3.9 57
2019-03-03 16:00:00 16 8 Sur 15 Sur 0 964.1 -3.3 47
2019-03-03 15:00:00 15.5 5 Norte 13 Noroeste 0 965.3 -3.1 53
2019-03-03 14:00:00 16.2 9 Noroeste 18 Oeste 0 966.6 -2.6 51
2019-03-03 13:00:00 15.9 4 Este 13 Oeste 0 967.4 -1.9 51
2019-03-03 12:00:00 12.6 3 Norte 11 Sudoeste 0 968.4 -0.6 57
2019-03-03 11:00:00 10.6 3 Este 9 Nordeste 0 969.2 0.4 60
2019-03-03 10:00:00 7.5 2 Noroeste 8 Nordeste 0 969.3 0.3 71
2019-03-03 09:00:00 3.5 0 Calma 8 Oeste 0 969 -0.4 88
2019-03-03 08:00:00 1.2 2 Sudoeste 5 Sur 0 968.8 -0.5 92
2019-03-03 07:00:00 1.1 6 Sudoeste 9 Sudoeste 0 969 -0.4 90
2019-03-03 06:00:00 2.2 4 Sudeste 8 Sur 0 969.4 -0.6 91
2019-03-03 05:00:00 2.4 4 Sudeste 5 Sudeste 0 969.3 -0.9 90
2019-03-03 04:00:00 2.7 0 Calma 5 Sudeste 0 969.4 -0.8 89
2019-03-03 03:00:00 2.9 6 Sudeste 8 Sudeste 0 970 -0.9 89
2019-03-03 02:00:00 3 3 Oeste 5 Oeste 0 970.2 -0.9 88
2019-03-03 01:00:00 3.5 0 Calma 5 Oeste 0 970.2 -1 85
2019-03-03 00:00:00 5.2 3 Este 11 Nordeste 0 970.9 -0.3 83
2019-03-02 23:00:00 6.5 4 Sudeste 11 Nordeste 0 971.1 -0.5 77
2019-03-02 22:00:00 7.7 5 Este 8 Este 0 971.2 0.1 74
2019-03-02 21:00:00 8.3 5 Sur 13 Este 0 971.2 0 71
2019-03-02 20:00:00 9.5 8 Nordeste 15 Nordeste 0 971.6 0.6 68
2019-03-02 19:00:00 12 10 Este 24 Nordeste 0 971.1 0.2 61
2019-03-02 18:00:00 14.1 13 Norte 24 Nordeste 0 971.2 0.1 55
2019-03-02 17:00:00 15.1 18 Nordeste 30 Norte 0 971 -0.4 50
2019-03-02 16:00:00 16.1 19 Norte 37 Norte 0 970.9 -1.2 43
2019-03-02 15:00:00 16.4 22 Norte 33 Norte 0 971.1 -1.1 43
2019-03-02 14:00:00 16.3 22 Noroeste 33 Norte 0 971.4 -0.8 42
2019-03-02 13:00:00 16.1 16 Norte 32 Norte 0 972.1 -0.4 45
2019-03-02 12:00:00 15.4 9 Noroeste 24 Noroeste 0 972.2 -0.1 53
2019-03-02 11:00:00 14 6 Sudoeste 13 Sur 0 972.2 0 60
2019-03-02 10:00:00 11.8 9 Sur 13 Sur 0 972.5 0.9 69
2019-03-02 09:00:00 8.3 0 Calma 15 Sur 0 972.3 0.9 82
2019-03-02 08:00:00 5.2 6 Sur 9 Sudeste 0 972.2 0.8 86
2019-03-02 07:00:00 5.7 3 Este 8 Oeste 0 971.6 -0.1 89
2019-03-02 06:00:00 5.1 3 Sudeste 8 Sudeste 0 971.4 -0.7 90
2019-03-02 05:00:00 4.5 3 Este 5 Este 0 971.4 -0.7 89
2019-03-02 04:00:00 3.9 2 Sur 11 Sudeste 0 971.7 -0.1 89
2019-03-02 03:00:00 3.8 3 Este 8 Este 0 972.1 0 89
2019-03-02 02:00:00 4.2 5 Nordeste 9 Sur 0 972.1 0.3 86
2019-03-02 01:00:00 4.5 8 Sudeste -- -- 0 971.8 0.4 84
2019-03-02 00:00:00 6.8 6 Noroeste 17 Norte 0 972.1 0.8 73
2019-03-01 23:00:00 6.9 15 Noroeste 21 Noroeste 0 971.8 0.9 75
2019-03-01 22:00:00 7.5 13 Noroeste 15 Noroeste 0 971.4 1.3 73
2019-03-01 21:00:00 7.7 10 Noroeste 24 Norte 0 971.3 1.7 72
2019-03-01 20:00:00 9.2 12 Norte 22 Norte 0 970.9 1.2 66
2019-03-01 19:00:00 10.9 16 Norte 32 Norte 0 970.1 0.3 56
2019-03-01 18:00:00 12.9 23 Norte 35 Norte 0 969.6 -0.4 48
2019-03-01 17:00:00 13.8 21 Norte 35 Norte 0 969.7 -1.2 44
2019-03-01 16:00:00 14.6 24 Norte 35 Norte 0 969.8 -1.7 43
2019-03-01 15:00:00 14.5 19 Norte 35 Norte 0 970 -2 47
2019-03-01 14:00:00 14 21 Norte 33 Norte 0 970.9 -1.7 50
2019-03-01 13:00:00 13.5 22 Norte 33 Norte 0 971.5 -1.4 51
2019-03-01 12:00:00 12.6 17 Norte 32 Norte 0 972 -1 54
2019-03-01 11:00:00 11 19 Norte 30 Norte 0 972.6 -0.4 60
2019-03-01 10:00:00 9.7 21 Norte 30 Norte 0 972.9 -0.1 67
2019-03-01 09:00:00 5.6 3 Sur -- -- 0 973 -0.3 93
2019-03-01 08:00:00 3.4 4 Sudeste 9 Sudeste 0 973 -0.3 93
2019-03-01 07:00:00 1.9 8 Sudeste -- -- 0 973 -0.6 95
2019-03-01 06:00:00 1 4 Sudeste 8 Sudeste 0 973.3 -0.9 93
2019-03-01 05:00:00 1.2 5 Sudeste 8 Sudeste 0 973.3 -1.2 90
2019-03-01 04:00:00 1.4 5 Sur 8 Sur 0 973.6 -1.2 91
2019-03-01 03:00:00 2.2 6 Sudeste 11 Sur 0 974.2 -0.8 91
2019-03-01 02:00:00 2.6 9 Sur 11 Sur 0 974.5 -0.9 90
2019-03-01 01:00:00 3.1 5 Sudeste 9 Sur 0 974.8 -0.7 87
2019-03-01 00:00:00 3.9 5 Sur 17 Norte 0 975 -0.3 87
2019-02-28 23:00:00 5.3 12 Norte 13 Norte 0 975.4 0 83
2019-02-28 22:00:00 6.6 12 Noroeste 18 Noroeste 0 975.5 0.2 80
2019-02-28 21:00:00 7.3 12 Norte 18 Norte 0 975.3 0.3 79
2019-02-28 20:00:00 8.2 14 Norte 24 Norte 0 975.4 0.4 75
2019-02-28 19:00:00 9.4 16 Norte 33 Norte 0 975.3 0.3 70
2019-02-28 18:00:00 11.1 26 Norte 41 Norte 0 975 -0.3 63
2019-02-28 17:00:00 12.8 30 Norte 45 Norte 0 975 -0.7 56
2019-02-28 16:00:00 14.2 30 Norte 45 Norte 0 975 -1.4 51
2019-02-28 15:00:00 15 28 Norte 45 Norte 0 975.3 -1.1 50
2019-02-28 14:00:00 15.1 30 Norte 48 Noroeste 0 975.7 -0.7 50
2019-02-28 13:00:00 14.5 31 Norte 41 Norte 0 976.4 -0.1 50
2019-02-28 12:00:00 14.1 29 Norte 42 Norte 0 976.4 0.2 52
2019-02-28 11:00:00 13.2 26 Norte 42 Norte 0 976.4 0 53
2019-02-28 10:00:00 11.5 28 Norte 41 Norte 0 976.5 0.2 64
2019-02-28 09:00:00 9.7 15 Norte 24 Noroeste 0 976.2 0 74
2019-02-28 08:00:00 7.1 10 Noroeste 17 Noroeste 0 976.4 0.6 83
2019-02-28 07:00:00 7.6 13 Noroeste 21 Norte 0 976.3 0.6 81
2019-02-28 06:00:00 7.8 14 Noroeste 22 Norte 0 976.2 0.1 80
2019-02-28 05:00:00 8 13 Noroeste 21 Norte 0 975.8 0 77
2019-02-28 04:00:00 8.4 13 Noroeste 24 Norte 0 975.7 0.1 78
2019-02-28 03:00:00 9.2 18 Norte 26 Norte 0 976.1 0.7 76
2019-02-28 02:00:00 9.6 18 Noroeste 28 Norte 0 975.8 0.8 76
2019-02-28 01:00:00 10.2 18 Noroeste 26 Noroeste 0 975.6 1.5 70
2019-02-28 00:00:00 10.7 14 Noroeste 28 Norte 0 975.4 2.6 63
2019-02-27 23:00:00 11.2 25 Norte 37 Norte 0 975 2.9 62
2019-02-27 22:00:00 11.7 18 Norte 26 Norte 0 974.1 2.6 53
2019-02-27 21:00:00 9.6 4 Sudeste 11 Oeste 0 972.8 1.4 67
2019-02-27 20:00:00 12.9 5 Sudoeste 11 Sur 0 972.1 0.8 55
2019-02-27 19:00:00 16.3 6 Sudoeste 11 Sudoeste 0 971.5 0.1 48
2019-02-27 18:00:00 21.6 5 Noroeste 11 Oeste 0 971.4 -0.6 26
2019-02-27 17:00:00 22.4 6 Oeste 11 Oeste 0 971.3 -1.5 23
2019-02-27 16:00:00 22.3 5 Sur 13 Sur 0 971.4 -2.2 26
2019-02-27 15:00:00 20 4 Este 11 Norte 0 972 -2.3 31
2019-02-27 14:00:00 18.5 5 Nordeste 15 Norte 0 972.8 -2 30
2019-02-27 13:00:00 16.1 4 Nordeste 11 Este 0 973.6 -1.5 38
2019-02-27 12:00:00 13 3 Nordeste 11 Norte 0 974.3 -0.7 47
2019-02-27 11:00:00 10.1 3 Oeste 8 Sudoeste 0 974.8 0.1 55
2019-02-27 10:00:00 6.9 3 Este 5 Este 0 975.1 0.5 63
2019-02-27 09:00:00 2.7 2 Sudoeste 8 Sudeste 0 975 0.5 84
2019-02-27 08:00:00 0.6 5 Sudeste 5 Sur 0 974.7 0.3 84
2019-02-27 07:00:00 0.6 4 Sur 5 Sur 0 974.6 0.1 84
2019-02-27 06:00:00 1.3 0 Calma 4 Sudeste 0 974.5 -0.2 83
2019-02-27 05:00:00 1 2 Noroeste 8 Oeste 0 974.4 -0.7 85
2019-02-27 04:00:00 1.9 4 Noroeste 8 Oeste 0 974.5 -0.7 80
2019-02-27 03:00:00 2.8 5 Oeste 8 Oeste 0 974.7 -0.5 78
2019-02-27 02:00:00 3.8 3 Sur 8 Sur 0 975.1 -0.2 74
2019-02-27 01:00:00 4.9 2 Sudoeste 8 Sudoeste 0 975.2 0.2 72
2019-02-27 00:00:00 7.5 3 Sur 9 Sudoeste 0 975.2 0.2 59
2019-02-26 23:00:00 7.2 7 Sudeste 11 Oeste 0 975.3 0.5 64
2019-02-26 22:00:00 9.8 4 Oeste -- -- -- 975 0.4 54
2019-02-26 21:00:00 11.5 4 Oeste 11 Sur 0 975 0.6 49
2019-02-26 20:00:00 12.6 8 Sur 13 Sur 0 974.8 0.3 46
2019-02-26 19:00:00 15.7 10 Sur 13 Sur 0 974.6 0.2 36
2019-02-26 18:00:00 20.2 9 Sur 17 Sur 0 974.4 -0.6 29
2019-02-26 17:00:00 21.2 12 Sur 18 Sudeste 0 974.5 -1.2 25
2019-02-26 16:00:00 21.2 13 Sur 21 Sur 0 974.4 -2.4 28
2019-02-26 15:00:00 20.3 10 Sudoeste 18 Sur 0 975 -2.4 36
2019-02-26 14:00:00 17.7 5 Nordeste 11 Nordeste 0 975.7 -1.9 46
2019-02-26 13:00:00 15.9 7 Noroeste 13 Noroeste 0 976.8 -1 49
2019-02-26 12:00:00 12.7 4 Norte 9 Noroeste 0 977.4 -0.1 61
2019-02-26 11:00:00 9.2 5 Noroeste 9 Noroeste 0 977.6 0.6 72
2019-02-26 10:00:00 6.8 2 Norte 8 Nordeste 0 977.8 1.1 80
2019-02-26 09:00:00 2.8 0 Calma 5 Sur 0 977.5 1 93
2019-02-26 08:00:00 0.3 4 Sudeste 5 Sudeste 0 977 0.4 94
2019-02-26 07:00:00 0.8 3 Sur 5 Noroeste 0 976.7 0 92
2019-02-26 06:00:00 1.1 2 Oeste 5 Sudoeste 0 976.5 -0.6 94
2019-02-26 05:00:00 2.1 2 Este 5 Sur 0 976.6 -0.7 93
2019-02-26 04:00:00 2 4 Sudeste 9 Sudoeste 0 976.7 -0.4 93
2019-02-26 03:00:00 3.5 3 Este 9 Sudeste 0 977.1 0 91
2019-02-26 02:00:00 3.3 9 Sudeste 13 Sudeste 0 977.3 0.3 91
2019-02-26 01:00:00 4.6 2 Sudeste 9 Sudoeste 0 977.1 0.3 88
2019-02-26 00:00:00 6.1 4 Norte 8 Nordeste 0 977.1 0.7 84
2019-02-25 23:00:00 6.6 4 Sur 11 Sur 0 977 0.8 82
2019-02-25 22:00:00 7.9 6 Sudeste 13 Sudoeste 0 976.8 1.1 78
2019-02-25 21:00:00 8.6 10 Sudoeste 13 Sur 0 976.4 0.7 74
2019-02-25 20:00:00 11.1 4 Este 8 Oeste 0 976.2 0.5 67
2019-02-25 19:00:00 12.9 7 Sudoeste 9 Sudoeste 0 975.7 -0.3 63
2019-02-25 18:00:00 17 8 Sur 13 Sur 0 975.7 -0.7 46
2019-02-25 17:00:00 17.8 5 Noroeste 13 Noroeste 0 975.7 -1.5 45
2019-02-25 16:00:00 17.3 5 Noroeste 13 Oeste 0 976 -1.9 46
2019-02-25 15:00:00 16.9 5 Noroeste 13 Noroeste 0 976.4 -2.2 47
2019-02-25 14:00:00 16.1 8 Noroeste 13 Noroeste 0 977.2 -1.8 51
2019-02-25 13:00:00 14.6 2 Sur 9 Este 0 977.9 -1.1 53
2019-02-25 12:00:00 11.8 4 Nordeste 11 Nordeste 0 978.6 0 61
2019-02-25 11:00:00 8.8 3 Nordeste 8 Nordeste 0 979 0.7 70
2019-02-25 10:00:00 5.9 3 Sur 5 Sur 0 979 0.9 79
2019-02-25 09:00:00 2.8 0 Calma 4 Sur 0 978.6 0.2 93
2019-02-25 08:00:00 0.3 0 Calma 4 Sur 0 978.3 -0.2 95
2019-02-25 07:00:00 0.7 0 Calma 4 Sur 0 978.1 -0.5 94
2019-02-25 06:00:00 0.8 0 Calma 2 Oeste 0 978.4 -0.7 92
2019-02-25 05:00:00 1.2 0 Calma 5 Sur 0 978.5 -0.9 91
2019-02-25 04:00:00 2 2 Sur 8 Sur 0 978.6 -0.8 89
2019-02-25 03:00:00 2.7 4 Sur 8 Sur 0 979.1 -0.1 88
2019-02-25 02:00:00 2.9 3 Oeste 5 Oeste 0 979.4 0.4 86
2019-02-25 01:00:00 4.3 0 Calma -- -- 0 979.4 0.7 85
2019-02-25 00:00:00 4.9 6 Sur 8 Sur 0 979.2 0.7 81
2019-02-24 23:00:00 6 5 Sur 9 Sur 0 979 0.7 78
2019-02-24 22:00:00 7 3 Sudeste 11 Sudeste 0 978.7 0.9 75
2019-02-24 21:00:00 9.2 10 Sudeste 13 Sudeste 0 978.5 1.3 66
2019-02-24 20:00:00 11.4 8 Sudeste 15 Sudoeste 0 978.3 1.5 57
2019-02-24 19:00:00 13.3 7 Oeste 13 Sudoeste 0 977.8 0.8 50
2019-02-24 18:00:00 16.6 10 Sudoeste 17 Sudoeste 0 977.2 0 43
2019-02-24 17:00:00 17.6 13 Oeste 22 Oeste 0 976.8 -1 42
2019-02-24 16:00:00 17.9 8 Oeste 15 Oeste 0 977 -1.6 42
2019-02-24 15:00:00 17.3 4 Noroeste 15 Noroeste 0 977.2 -1.8 42
2019-02-24 14:00:00 16.6 9 Oeste 15 Noroeste 0 977.8 -0.8 44
2019-02-24 13:00:00 15 3 Este 11 Norte 0 978.6 0.1 44
2019-02-24 12:00:00 12.9 3 Nordeste 9 Sudeste 0 979 1 48
2019-02-24 11:00:00 10.2 4 Sudeste 9 Sudeste 0 978.6 1 54
2019-02-24 10:00:00 6.7 3 Este 5 Este 0 978.5 1.3 65
2019-02-24 09:00:00 3.3 0 Calma 4 Sur 0 978 1.2 82
2019-02-24 08:00:00 1.2 3 Sudeste 9 Nordeste 0 977.6 1 84
2019-02-24 07:00:00 1.4 2 Oeste 11 Sudeste 0 977.2 0.8 83
2019-02-24 06:00:00 2.8 6 Este 11 Este 0 976.8 0.1 77
2019-02-24 05:00:00 2.5 3 Nordeste 9 Sudeste 0 976.6 -0.5 79
2019-02-24 04:00:00 4.3 5 Sudeste 9 Sudeste 0 976.4 -0.3 71
2019-02-24 03:00:00 5.4 4 Sur 13 Sudoeste 0 976.7 0.2 67
2019-02-24 02:00:00 6.2 3 Sudeste 8 Este 0 977.1 0.6 64
2019-02-24 01:00:00 8.2 3 Sudeste 18 Norte 0 976.7 0.5 55
2019-02-24 00:00:00 10.4 19 Norte 30 Norte 0 976.5 0.7 48
2019-02-23 23:00:00 9.6 13 Norte 22 Norte 0 976.5 1.1 53
2019-02-23 22:00:00 9.4 11 Norte 18 Norte 0 976.2 1.2 52
2019-02-23 21:00:00 10.3 12 Norte 24 Norte 0 975.8 1.3 47
2019-02-23 20:00:00 12 18 Norte 28 Norte 0 975.4 0.9 43
2019-02-23 19:00:00 13.2 21 Norte 42 Norte 0 975 0.5 35
2019-02-23 18:00:00 15.1 31 Norte 45 Norte 0 974.5 -0.1 29
2019-02-23 17:00:00 16.5 31 Norte 46 Norte 0 974.5 -0.1 27
2019-02-23 16:00:00 18.4 33 Norte 46 Norte 0 974.5 -0.4 25
2019-02-23 15:00:00 19.4 29 Norte 42 Norte 0 974.6 -0.8 24
2019-02-23 14:00:00 19.8 26 Norte 41 Norte 0 974.6 -0.9 23
2019-02-23 13:00:00 19.8 23 Norte 33 Noroeste 0 974.9 -0.7 25
2019-02-23 12:00:00 16.1 13 Noroeste 21 Noroeste 0 975.4 0.1 38
2019-02-23 11:00:00 10.7 3 Sudoeste 8 Sudoeste 0 975.5 0.6 52
2019-02-23 10:00:00 5.5 3 Sudeste 5 Sudeste 0 975.6 1.1 74
2019-02-23 09:00:00 1.2 0 Calma 9 Sudeste 0 975.3 0.9 86
2019-02-23 08:00:00 -0.8 0 Calma 4 Sudeste 0 974.9 0.7 88
2019-02-23 07:00:00 -0.2 0 Calma -- -- 0 974.5 0.2 89
2019-02-23 06:00:00 0 5 Sur -- -- 0 974.4 -0.4 86
2019-02-23 05:00:00 0.8 2 Sur 5 Sur 0 974.2 -0.6 86
2019-02-23 04:00:00 1.4 6 Sur 8 Sur 0 974.3 -0.4 83
2019-02-23 03:00:00 1.7 2 Sudeste 5 Sudeste 0 974.8 0 83
2019-02-23 02:00:00 3.6 5 Sur -- -- 0 974.8 -0.3 76
2019-02-23 01:00:00 3.8 2 Este 9 Sur 0 974.7 -0.4 75
2019-02-23 00:00:00 4.6 5 Sur 9 Sudeste 0 974.8 -0.4 72
2019-02-22 23:00:00 6.4 6 Este 8 Este 0 975.1 0.1 67
2019-02-22 22:00:00 8.2 6 Sur -- -- 0 975.1 0.6 60
2019-02-22 21:00:00 10.2 5 Sur 11 Noroeste 0 975.2 1 53
2019-02-22 20:00:00 13.2 10 Norte 15 Noroeste 0 975 0.8 43
2019-02-22 19:00:00 15.5 12 Norte 18 Norte 0 974.5 0.1 37
2019-02-22 18:00:00 19 9 Noroeste 26 Oeste 0 974.2 -0.4 32
2019-02-22 17:00:00 21.2 10 Oeste 15 Oeste 0 974.2 -1.4 26
2019-02-22 16:00:00 20.7 8 Oeste 15 Oeste 0 974.4 -2.3 27
2019-02-22 15:00:00 19.3 10 Oeste 17 Oeste 0 974.6 -3 32
2019-02-22 14:00:00 16.4 5 Oeste 9 Oeste 0 975.6 -2.8 41
2019-02-22 13:00:00 13.5 5 Oeste 11 Noroeste 0 976.7 -2.2 50
2019-02-22 12:00:00 10.8 4 Este 8 Sudeste 0 977.6 -1.1 57
2019-02-22 11:00:00 7.6 2 Nordeste 8 Oeste 0 978.4 0.3 72
2019-02-22 10:00:00 4.7 2 Este 5 Este 0 978.9 0.8 82
2019-02-22 09:00:00 0.4 2 Sudeste 8 Sudoeste 0 978.7 0.6 93
2019-02-22 08:00:00 -1.3 2 Noroeste 5 Oeste 0 978.1 0.3 94
2019-02-22 07:00:00 0.2 0 Calma 11 Sur 0 978.1 0 94
2019-02-22 06:00:00 0 6 Sur 8 Sur 0 978.1 -0.2 94
2019-02-22 05:00:00 0.3 5 Sur 9 Sudeste 0 977.8 -0.3 93
2019-02-22 04:00:00 1.8 4 Noroeste 5 Noroeste 0 978.1 0.2 91
2019-02-22 03:00:00 2 3 Sudeste 8 Sudeste 0 978.3 0.6 89
2019-02-22 02:00:00 3.4 3 Noroeste 8 Sur 0 978.1 0.7 86
2019-02-22 01:00:00 3.2 6 Sudeste 8 Sur 0 977.9 1.2 87
2019-02-22 00:00:00 4.2 7 Sudeste 11 Sur 0 977.7 1.4 82
2019-02-21 23:00:00 5.2 5 Sur 13 Sur 0 977.4 1.9 81
2019-02-21 22:00:00 5.8 11 Sur 13 Sur 0 976.7 2 79
2019-02-21 21:00:00 7.7 6 Sudeste 8 Sudeste 0 976.3 2.1 76
2019-02-21 20:00:00 10.2 3 Sur 9 Oeste 0 975.5 1.5 66
2019-02-21 19:00:00 12 8 Oeste 11 Oeste 0 974.7 0.6 65
2019-02-21 18:00:00 16.1 8 Oeste 11 Oeste 0 974.2 0 55
2019-02-21 17:00:00 16.7 5 Sudeste 11 Sudeste 0 974 -0.6 48
2019-02-21 16:00:00 15.8 6 Este 13 Nordeste 0 974.1 -0.9 54
2019-02-21 15:00:00 15.3 4 Norte 15 Noroeste 0 974.2 -1.3 56
2019-02-21 14:00:00 14 5 Norte 17 Oeste 0 974.6 -1.2 59
2019-02-21 13:00:00 11.8 4 Norte 9 Nordeste 0 975 -0.7 63
2019-02-21 12:00:00 9.9 3 Nordeste 9 Este 0 975.5 0.3 69
2019-02-21 11:00:00 6.9 3 Nordeste 8 Este 0 975.8 1.4 79
2019-02-21 10:00:00 3.9 0 Calma 4 Oeste 0 975.7 1.7 92
2019-02-21 09:00:00 0.1 0 Calma 4 Sudoeste 0 975.2 1.4 96
2019-02-21 08:00:00 -0.5 0 Calma -- -- 0 974.4 1 96
2019-02-21 07:00:00 0.6 0 Calma 4 Sudeste 0 974 0.5 97
2019-02-21 06:00:00 0.5 0 Calma 4 Sur 0 973.8 0.3 96
2019-02-21 05:00:00 0.5 0 Calma 5 Sur 0 973.4 0 94
2019-02-21 04:00:00 1.5 3 Sudeste 5 Sur 0 973.5 0.4 95
2019-02-21 03:00:00 1.9 0 Calma 8 Sudeste 0 973.5 1.1 95
2019-02-21 02:00:00 2.2 4 Sur 8 Sur 0 973.4 1.1 95
2019-02-21 01:00:00 2.7 0 Calma 5 Sur 0 973.1 1.2 93
2019-02-21 00:00:00 3.7 0 Calma 9 Sur 0 972.4 1 93
2019-02-20 23:00:00 4.1 7 Sur 11 Sur 0 972.3 1.4 90
2019-02-20 22:00:00 5.6 8 Sudeste 11 Sur 0 971.9 1.6 88
2019-02-20 21:00:00 7.6 5 Sur 5 Sur 0 971.4 1.5 83
2019-02-20 20:00:00 7.7 2 Este 9 Sudeste 0 970.9 1.1 83
2019-02-20 19:00:00 10 0 Calma 8 Oeste 0 970.3 0.5 75
2019-02-20 18:00:00 12.6 6 Noroeste 15 Noroeste 0 969.9 0 64
2019-02-20 17:00:00 13.6 12 Noroeste 15 Noroeste 0 969.8 -0.6 60
2019-02-20 16:00:00 14.4 9 Sudoeste 17 Sur 0 969.8 -1.1 56
2019-02-20 15:00:00 13.8 7 Sur 18 Sudoeste 0 969.9 -1.4 57
2019-02-20 14:00:00 13 3 Sur 11 Sudeste 0 970.4 -0.7 60
2019-02-20 13:00:00 11.3 3 Este 9 Sur 0 970.9 -0.1 60
2019-02-20 12:00:00 9.2 3 Nordeste 9 Norte 0 971.3 0.8 65
2019-02-20 11:00:00 7.3 3 Este 8 Sudeste 0 971.1 1.6 72
2019-02-20 10:00:00 3.7 0 Calma 5 Sudeste 0 971 2.1 84
2019-02-20 09:00:00 0.3 3 Sudeste -- -- 0 970.5 1.7 94
2019-02-20 08:00:00 -0.8 5 Sudeste 8 Sur 0 969.5 0.8 94
2019-02-20 07:00:00 0 0 Calma 5 Sudeste 0 968.9 0 95
2019-02-20 06:00:00 0 0 Calma 5 Sudeste 0 968.8 -0.2 92
2019-02-20 05:00:00 1 0 Calma 5 Sur 0 968.7 -0.3 92
2019-02-20 04:00:00 1 3 Oeste 9 Sudoeste 0 968.9 0.2 92
2019-02-20 03:00:00 1.8 5 Nordeste 8 Nordeste 0 969 0.4 90
2019-02-20 02:00:00 2 0 Calma -- -- -- 969 0.7 89
2019-02-20 01:00:00 3 3 Sudeste 9 Sudeste 0 968.7 1 87
2019-02-20 00:00:00 3.8 0 Calma 8 Nordeste 0 968.6 1.4 86